Time;durP1;ratioP1;P1;durP2;ratioP2;P2;SDS_P1;SDS_P2;PMS_P1;PMS_P2;Temp;Humidity;BMP_temperature;BMP_pressure;BME280_temperature;BME280_humidity;BME280_pressure;Samples;Min_cycle;Max_cycle;Signal;HPM_P1;HPM_P2
2023/08/20 00:00:07;;;;;;;2.58;1.65;;;;;;;15.82;100.00;102178.31;5094693;28;20070;-67
2023/08/20 00:02:37;;;;;;;2.30;1.60;;;;;;;16.10;100.00;102222.75;5094783;28;20024;-67
2023/08/20 00:05:03;;;;;;;3.75;1.80;;;;;;;16.04;100.00;102211.81;5094466;28;20027;-64
2023/08/20 00:07:31;;;;;;;2.92;2.22;;;;;;;16.08;100.00;102223.91;5093149;28;20051;-67
2023/08/20 00:09:56;;;;;;;3.53;1.40;;;;;;;16.04;100.00;102214.50;5094336;28;20028;-67
2023/08/20 00:12:22;;;;;;;2.03;1.85;;;;;;;15.98;100.00;102205.25;5094802;28;20092;-64
2023/08/20 00:15:06;;;;;;;1.88;1.52;;;;;;;16.10;100.00;102225.44;5094837;28;20035;-66
2023/08/20 00:17:37;;;;;;;2.58;1.83;;;;;;;15.97;100.00;102200.88;5094342;28;20431;-66
2023/08/20 00:20:12;;;;;;;4.55;1.65;;;;;;;15.99;100.00;102208.78;5094146;28;20368;-67
2023/08/20 00:22:37;;;;;;;2.47;2.00;;;;;;;15.96;100.00;102209.09;5094489;28;20059;-66
2023/08/20 00:25:06;;;;;;;2.05;1.85;;;;;;;16.04;100.00;102228.78;5094102;28;20466;-67
2023/08/20 00:27:32;;;;;;;1.33;1.23;;;;;;;15.95;100.00;102207.44;5094148;28;20453;-66
2023/08/20 00:29:58;;;;;;;1.85;1.42;;;;;;;15.96;100.00;102203.72;5096743;28;20028;-64
2023/08/20 00:32:23;;;;;;;2.42;1.38;;;;;;;16.05;100.00;102208.13;5094093;28;20379;-66
2023/08/20 00:34:49;;;;;;;8.73;1.90;;;;;;;16.00;100.00;102199.72;5094204;28;20024;-64
2023/08/20 00:37:14;;;;;;;2.33;1.52;;;;;;;16.06;100.00;102209.81;5094267;28;20089;-67
2023/08/20 00:39:40;;;;;;;3.53;1.92;;;;;;;16.05;100.00;102214.34;5094300;28;20031;-66
2023/08/20 00:42:07;;;;;;;2.53;2.22;;;;;;;15.97;100.00;102194.66;5093673;28;20039;-67
2023/08/20 00:44:33;;;;;;;2.92;1.65;;;;;;;15.99;100.00;102198.88;5093713;28;20043;-66
2023/08/20 00:47:04;;;;;;;3.83;2.00;;;;;;;16.03;100.00;102210.97;5093263;28;20074;-65
2023/08/20 00:49:31;;;;;;;3.80;1.90;;;;;;;15.79;100.00;102176.78;5093669;28;20069;-65
2023/08/20 00:51:57;;;;;;;2.83;2.15;;;;;;;16.00;100.00;102205.09;5093613;28;20031;-67
2023/08/20 00:54:23;;;;;;;3.05;2.72;;;;;;;16.01;100.00;102204.94;5092346;28;20050;-67
2023/08/20 00:56:50;;;;;;;2.28;1.67;;;;;;;15.93;100.00;102204.91;5093240;28;20470;-67
2023/08/20 00:59:16;;;;;;;2.85;1.80;;;;;;;15.99;100.00;102214.16;5094930;28;20418;-63
2023/08/20 01:01:42;;;;;;;5.22;1.80;;;;;;;15.88;100.00;102190.25;5092200;28;20032;-65
2023/08/20 01:04:07;;;;;;;2.33;2.13;;;;;;;15.91;100.00;102200.69;5093176;28;20483;-64
2023/08/20 01:06:36;;;;;;;2.00;1.80;;;;;;;15.88;100.00;102204.53;5093028;28;20107;-64
2023/08/20 01:09:06;;;;;;;;;;;;;;;15.88;100.00;102206.38;5093552;28;20039;-66
2023/08/20 01:11:38;;;;;;;2.38;1.75;;;;;;;15.83;100.00;102203.34;5092979;28;20025;-65
2023/08/20 01:14:14;;;;;;;3.97;2.00;;;;;;;15.51;100.00;102161.88;5093610;28;20028;-69
2023/08/20 01:16:39;;;;;;;2.33;1.73;;;;;;;15.68;100.00;102190.53;5093212;28;20031;-65
2023/08/20 01:19:08;;;;;;;2.70;2.00;;;;;;;15.72;100.00;102196.41;5092789;28;20036;-67
2023/08/20 01:22:05;;;;;;;1.98;1.70;;;;;;;15.76;100.00;102203.97;5092931;28;20075;-64
2023/08/20 01:24:54;;;;;;;2.60;1.70;;;;;;;15.73;100.00;102198.09;5092604;28;20422;-67
2023/08/20 01:27:57;;;;;;;3.33;1.92;;;;;;;15.77;100.00;102199.44;5092980;28;20023;-66
2023/08/20 01:30:23;;;;;;;2.13;1.55;;;;;;;15.65;100.00;102195.38;5094426;28;20073;-68
2023/08/20 01:32:53;;;;;;;2.40;1.83;;;;;;;15.68;100.00;102190.53;5092592;28;20027;-67
2023/08/20 01:35:19;;;;;;;3.07;1.83;;;;;;;15.65;100.00;102185.47;5091593;28;20467;-64
2023/08/20 01:37:45;;;;;;;2.57;1.83;;;;;;;15.58;100.00;102181.72;5092315;28;20080;-66
2023/08/20 01:40:10;;;;;;;2.13;1.90;;;;;;;15.57;100.00;102185.41;5092645;28;20426;-65
2023/08/20 01:42:40;;;;;;;1.77;1.67;;;;;;;15.55;100.00;102183.88;5091223;28;20379;-64
2023/08/20 01:45:06;;;;;;;4.47;2.27;;;;;;;15.63;100.00;102198.25;5092790;28;20027;-68
2023/08/20 01:47:33;;;;;;;5.10;2.43;;;;;;;15.51;100.00;102175.31;5092550;28;20455;-64
2023/08/20 01:49:58;;;;;;;2.13;1.90;;;;;;;15.61;100.00;102194.88;5092546;28;20043;-64
2023/08/20 01:52:24;;;;;;;2.83;2.63;;;;;;;15.59;100.00;102182.56;5092454;28;20032;-67
2023/08/20 01:54:50;;;;;;;2.63;2.10;;;;;;;15.58;100.00;102184.41;5092372;28;20474;-65
2023/08/20 01:57:15;;;;;;;6.20;1.90;;;;;;;15.57;100.00;102182.72;5092277;28;20024;-64
2023/08/20 01:59:41;;;;;;;3.13;1.70;;;;;;;15.66;100.00;102202.44;5092357;28;20048;-63
2023/08/20 02:02:06;;;;;;;3.23;1.93;;;;;;;15.68;100.00;102200.44;5092657;28;20468;-64
2023/08/20 02:04:32;;;;;;;2.40;1.90;;;;;;;15.55;100.00;102184.72;5091924;28;20028;-63
2023/08/20 02:06:58;;;;;;;1.87;1.77;;;;;;;15.60;100.00;102197.69;5088655;28;20040;-64
2023/08/20 02:09:24;;;;;;;3.50;2.30;;;;;;;15.70;100.00;102214.53;5092107;28;20039;-64
2023/08/20 02:11:50;;;;;;;3.00;1.80;;;;;;;15.71;100.00;102211.69;5092079;28;20053;-65
2023/08/20 02:14:16;;;;;;;1.67;1.58;;;;;;;15.71;100.00;102205.47;5091918;28;20114;-64
2023/08/20 02:16:42;;;;;;;1.90;1.80;;;;;;;15.72;100.00;102208.00;5092059;28;20173;-64
2023/08/20 02:19:07;;;;;;;2.07;1.87;;;;;;;15.70;100.00;102199.28;5090906;28;20485;-63
2023/08/20 02:21:33;;;;;;;2.53;1.90;;;;;;;15.68;100.00;102205.81;5091992;28;20122;-64
2023/08/20 02:23:59;;;;;;;2.05;1.83;;;;;;;15.62;100.00;102190.34;5092067;28;20115;-63
2023/08/20 02:26:24;;;;;;;2.05;1.80;;;;;;;15.61;100.00;102183.25;5091931;28;20036;-63
2023/08/20 02:28:50;;;;;;;2.43;1.87;;;;;;;15.63;100.00;102189.34;5091844;28;20060;-64
2023/08/20 02:31:15;;;;;;;2.83;2.13;;;;;;;15.62;100.00;102196.56;5092065;28;20050;-64
2023/08/20 02:33:41;;;;;;;3.37;2.17;;;;;;;15.31;100.00;102145.16;5091047;28;20081;-64
2023/08/20 02:36:06;;;;;;;2.23;1.97;;;;;;;15.50;100.00;102181.69;5092114;28;20134;-68
2023/08/20 02:38:32;;;;;;;2.17;1.90;;;;;;;15.57;100.00;102198.81;5091878;28;20071;-65
2023/08/20 02:40:57;;;;;;;3.70;2.00;;;;;;;15.61;100.00;102210.97;5092127;28;20407;-64
2023/08/20 02:43:23;;;;;;;4.40;2.30;;;;;;;15.66;100.00;102208.66;5091847;28;20020;-67
2023/08/20 02:45:49;;;;;;;3.80;1.70;;;;;;;15.67;100.00;102218.41;5092012;28;20107;-64
2023/08/20 02:48:14;;;;;;;3.37;2.00;;;;;;;15.66;100.00;102218.56;5092814;28;20036;-66
2023/08/20 02:50:40;;;;;;;3.83;2.10;;;;;;;15.33;100.00;102156.59;5091814;28;20035;-67
2023/08/20 02:53:06;;;;;;;3.72;1.85;;;;;;;15.60;100.00;102209.28;5092059;28;20035;-65
2023/08/20 02:55:33;;;;;;;2.70;1.80;;;;;;;15.70;100.00;102214.53;5090522;28;20081;-69
2023/08/20 02:57:59;;;;;;;3.00;2.10;;;;;;;15.55;100.00;102191.94;5091638;28;20084;-67
2023/08/20 03:00:25;;;;;;;4.23;2.30;;;;;;;15.63;100.00;102202.75;5091612;28;20024;-63
2023/08/20 03:02:50;;;;;;;4.40;2.08;;;;;;;15.64;100.00;102204.44;5092309;28;20027;-67
2023/08/20 03:05:16;;;;;;;2.67;2.13;;;;;;;15.66;100.00;102205.13;5091669;28;20024;-68
2023/08/20 03:07:42;;;;;;;3.05;1.65;;;;;;;15.72;100.00;102209.84;5095993;28;20055;-64
2023/08/20 03:10:07;;;;;;;3.60;2.13;;;;;;;15.68;100.00;102211.19;5102372;28;20379;-65
2023/08/20 03:12:33;;;;;;;2.20;2.00;;;;;;;15.40;100.00;102156.81;5099827;28;20027;-65
2023/08/20 03:15:02;;;;;;;4.28;2.10;;;;;;;15.74;100.00;102203.31;5093085;28;20430;-66
2023/08/20 03:17:29;;;;;;;2.50;1.80;;;;;;;15.72;100.00;102189.19;5077542;28;20391;-64
2023/08/20 03:19:57;;;;;;;6.40;2.50;;;;;;;15.48;100.00;102151.47;5094658;28;20028;-69
2023/08/20 03:22:23;;;;;;;2.28;1.95;;;;;;;15.80;99.71;102204.50;5095824;28;20098;-68
2023/08/20 03:24:49;;;;;;;3.07;2.30;;;;;;;15.81;99.07;102195.44;5096791;28;20077;-64
2023/08/20 03:27:15;;;;;;;4.47;2.25;;;;;;;15.71;99.62;102190.22;5099298;28;20028;-66
2023/08/20 03:29:41;;;;;;;4.83;2.03;;;;;;;15.79;99.38;102192.91;5095319;28;20027;-66
2023/08/20 03:32:06;;;;;;;4.60;2.20;;;;;;;15.84;98.84;102194.28;5095492;28;20020;-65
2023/08/20 03:34:32;;;;;;;1.77;1.50;;;;;;;15.90;97.54;102199.88;5095280;28;20043;-67
2023/08/20 03:36:57;;;;;;;2.07;1.90;;;;;;;15.90;97.35;102201.66;5094885;28;20059;-67
2023/08/20 03:39:22;;;;;;;3.00;1.70;;;;;;;15.99;97.22;102193.50;5095131;28;20054;-68
2023/08/20 03:41:50;;;;;;;3.40;2.30;;;;;;;16.00;96.19;102199.72;5095361;28;20468;-69
2023/08/20 03:44:15;;;;;;;3.30;1.43;;;;;;;16.00;95.84;102183.59;5095174;28;20081;-67
2023/08/20 03:46:41;;;;;;;1.93;1.70;;;;;;;16.02;95.35;102173.53;5094746;28;20023;-68
2023/08/20 03:49:06;;;;;;;4.03;2.47;;;;;;;16.10;95.00;102185.13;5095275;28;20398;-64
2023/08/20 03:51:32;;;;;;;4.18;1.70;;;;;;;16.05;94.90;102175.88;5095012;28;20016;-66
2023/08/20 03:53:57;;;;;;;3.63;2.22;;;;;;;16.11;94.46;102188.66;5094740;28;20107;-66
2023/08/20 03:56:23;;;;;;;2.03;1.83;;;;;;;16.03;94.27;102173.34;5094608;28;20028;-67
2023/08/20 03:58:48;;;;;;;2.88;1.75;;;;;;;16.12;94.47;102174.22;5094610;28;20081;-68
2023/08/20 04:01:13;;;;;;;2.58;1.95;;;;;;;16.21;93.47;102175.94;5094464;28;20036;-63
2023/08/20 04:03:39;;;;;;;2.15;1.85;;;;;;;16.21;93.35;102175.94;5093402;28;20024;-66
2023/08/20 04:06:04;;;;;;;5.65;1.77;;;;;;;16.13;92.77;102165.13;5094693;28;20055;-66
2023/08/20 04:08:30;;;;;;;2.42;1.85;;;;;;;16.09;92.76;102182.59;5094146;28;20448;-68
2023/08/20 04:10:55;;;;;;;3.15;2.25;;;;;;;16.10;93.59;102189.66;5092864;28;20173;-67
2023/08/20 04:13:21;;;;;;;3.10;2.10;;;;;;;16.06;93.46;102193.69;5094041;28;20040;-68
2023/08/20 04:15:46;;;;;;;2.47;1.90;;;;;;;16.00;93.48;102205.09;5094000;28;20024;-66
2023/08/20 04:18:12;;;;;;;2.55;2.20;;;;;;;15.84;94.73;102186.22;5093984;28;20034;-65
2023/08/20 04:20:37;;;;;;;2.92;1.85;;;;;;;15.84;94.32;102205.00;5095356;28;20028;-64
2023/08/20 04:23:03;;;;;;;3.37;1.70;;;;;;;15.69;94.59;102196.75;5094033;28;20062;-67
2023/08/20 04:25:28;;;;;;;2.63;1.92;;;;;;;15.74;94.52;102208.69;5093865;28;20061;-68
2023/08/20 04:27:54;;;;;;;3.63;1.65;;;;;;;15.63;94.91;102192.03;5093802;28;20062;-67
2023/08/20 04:30:19;;;;;;;2.72;1.95;;;;;;;15.69;95.56;102210.19;5094261;28;20035;-65
2023/08/20 04:32:45;;;;;;;5.00;3.30;;;;;;;15.64;95.50;102210.66;5059117;28;20123;-64
2023/08/20 04:35:10;;;;;;;2.97;1.70;;;;;;;15.44;95.52;102174.25;5093760;28;20024;-68
2023/08/20 04:37:36;;;;;;;4.45;2.35;;;;;;;15.39;95.62;102169.38;5093980;28;20036;-66
2023/08/20 04:40:04;;;;;;;2.93;2.53;;;;;;;15.53;95.32;102197.47;5092535;28;20043;-66
2023/08/20 04:42:30;;;;;;;2.53;1.90;;;;;;;15.44;95.59;102204.63;5093794;28;20153;-67
2023/08/20 04:44:56;;;;;;;3.80;1.80;;;;;;;15.46;95.57;102217.91;5093728;28;20055;-65
2023/08/20 04:47:21;;;;;;;4.23;2.33;;;;;;;15.41;96.56;102222.91;5093581;28;20055;-64
2023/08/20 04:49:47;;;;;;;3.33;1.80;;;;;;;15.35;94.50;102220.88;5093850;28;20031;-63
2023/08/20 04:52:12;;;;;;;4.33;2.30;;;;;;;15.30;94.59;102213.25;5094308;28;20028;-63
2023/08/20 04:54:38;;;;;;;2.47;2.13;;;;;;;15.09;94.77;102188.66;5093616;28;20024;-66
2023/08/20 04:57:03;;;;;;;3.43;1.97;;;;;;;15.22;93.86;102213.22;5093297;28;20028;-66
2023/08/20 04:59:29;;;;;;;4.30;2.10;;;;;;;15.32;94.19;102216.63;5093903;28;20034;-68
2023/08/20 05:01:54;;;;;;;2.63;2.00;;;;;;;15.48;94.82;102238.22;5093602;28;20028;-68
2023/08/20 05:04:20;;;;;;;4.33;2.57;;;;;;;15.44;94.16;102222.59;5092106;28;20375;-67
2023/08/20 05:06:45;;;;;;;6.13;2.47;;;;;;;15.47;94.28;102236.53;5093222;28;20020;-67
2023/08/20 05:09:10;;;;;;;2.23;2.00;;;;;;;15.24;92.35;102187.06;5093210;28;20032;-63
2023/08/20 05:11:36;;;;;;;5.93;2.17;;;;;;;15.52;92.21;102236.06;5093102;28;20032;-68
2023/08/20 05:14:01;;;;;;;1.85;1.70;;;;;;;15.56;92.56;102232.03;5093079;28;20510;-67
2023/08/20 05:16:27;;;;;;;2.57;2.20;;;;;;;15.52;91.12;102222.63;5093153;28;20023;-65
2023/08/20 05:18:52;;;;;;;2.63;2.30;;;;;;;15.54;91.18;102227.84;5092970;28;20115;-68
2023/08/20 05:21:18;;;;;;;3.50;2.27;;;;;;;15.46;91.46;102217.91;5093760;28;20048;-66
2023/08/20 05:23:43;;;;;;;3.00;2.00;;;;;;;15.48;91.04;102227.47;5095133;28;20123;-64
2023/08/20 05:26:09;;;;;;;2.50;2.30;;;;;;;15.55;91.86;102233.06;5095059;28;20050;-66
2023/08/20 05:28:35;;;;;;;2.60;2.13;;;;;;;15.47;90.97;102214.22;5094822;28;20073;-67
2023/08/20 05:31:00;;;;;;;5.43;2.50;;;;;;;15.59;90.36;102236.28;5098863;28;20032;-66
2023/08/20 05:33:26;;;;;;;3.67;2.20;;;;;;;15.61;90.86;102224.41;5101558;28;20066;-65
2023/08/20 05:35:52;;;;;;;5.00;2.23;;;;;;;15.69;90.33;102224.44;5097472;28;20061;-67
2023/08/20 05:38:17;;;;;;;4.97;2.43;;;;;;;15.72;89.99;102228.66;5093206;28;20024;-68
2023/08/20 05:40:43;;;;;;;3.63;2.67;;;;;;;15.44;89.89;102180.47;5092976;28;20397;-67
2023/08/20 05:43:09;;;;;;;6.30;2.37;;;;;;;15.79;89.05;102230.53;5093188;28;20020;-68
2023/08/20 05:45:35;;;;;;;3.23;2.23;;;;;;;15.81;89.62;102235.72;5075137;28;20031;-65
2023/08/20 05:48:01;;;;;;;3.83;1.90;;;;;;;15.73;89.25;102217.75;5093339;28;20071;-65
2023/08/20 05:50:26;;;;;;;4.93;2.07;;;;;;;15.85;89.48;102212.06;5091340;28;20028;-64
2023/08/20 05:52:52;;;;;;;4.63;2.27;;;;;;;15.87;87.18;102199.31;5092744;28;20024;-64
2023/08/20 05:55:18;;;;;;;3.03;2.03;;;;;;;15.88;87.16;102204.53;5091309;28;20400;-66
2023/08/20 05:57:45;;;;;;;2.87;1.80;;;;;;;15.85;87.51;102198.63;5091281;28;20032;-65
2023/08/20 06:00:11;;;;;;;3.57;2.30;;;;;;;15.94;87.15;102213.81;5092673;28;20019;-65
2023/08/20 06:02:37;;;;;;;3.35;2.03;;;;;;;15.94;85.25;102221.88;5092656;28;20060;-68
2023/08/20 06:05:06;;;;;;;2.37;2.17;;;;;;;16.10;85.29;102227.28;5074309;28;20524;-66
2023/08/20 06:07:32;;;;;;;2.83;2.20;;;;;;;16.29;83.64;102221.63;5092032;28;20131;-68
2023/08/20 06:10:02;;;;;;;2.35;1.65;;;;;;;16.47;83.60;102223.31;5092061;28;20075;-66
2023/08/20 06:12:29;;;;;;;2.15;1.58;;;;;;;16.54;81.71;102224.38;5092480;28;20032;-68
2023/08/20 06:14:54;;;;;;;1.45;1.30;;;;;;;16.37;80.27;102208.19;5092180;28;20397;-68
2023/08/20 06:17:20;;;;;;;2.67;1.95;;;;;;;16.36;81.64;102227.19;5092423;28;20038;-68
2023/08/20 06:19:46;;;;;;;3.20;1.80;;;;;;;16.25;81.50;102224.81;5092124;28;20074;-66
2023/08/20 06:22:11;;;;;;;2.83;1.88;;;;;;;16.11;81.02;102202.09;5093720;28;20027;-68
2023/08/20 06:24:37;;;;;;;2.28;2.00;;;;;;;16.20;80.67;102203.81;5093407;28;20032;-66
2023/08/20 06:27:03;;;;;;;2.50;1.87;;;;;;;16.43;79.14;102218.28;5092219;28;20028;-65
2023/08/20 06:29:28;;;;;;;2.35;1.90;;;;;;;16.48;77.82;102209.75;5092091;28;20035;-65
2023/08/20 06:31:54;;;;;;;2.80;1.83;;;;;;;16.59;77.95;102195.97;5090756;28;20032;-64
2023/08/20 06:34:19;;;;;;;2.40;1.70;;;;;;;16.51;77.75;102187.06;5092068;28;20062;-67
2023/08/20 06:36:45;;;;;;;5.47;2.03;;;;;;;16.60;78.01;102188.72;5091841;28;20097;-65
2023/08/20 06:39:10;;;;;;;4.78;1.75;;;;;;;16.47;77.34;102183.00;5092502;28;20038;-65
2023/08/20 06:41:36;;;;;;;6.88;1.75;;;;;;;16.48;76.58;102190.06;5092023;28;20034;-63
2023/08/20 06:44:02;;;;;;;3.95;2.13;;;;;;;16.43;77.59;102190.56;5092007;28;20039;-65
2023/08/20 06:46:28;;;;;;;4.65;1.98;;;;;;;16.54;75.07;102208.22;5093222;28;20020;-67
2023/08/20 06:48:53;;;;;;;3.38;2.13;;;;;;;16.56;74.77;102200.84;5092436;28;20096;-64
2023/08/20 06:51:21;;;;;;;4.22;1.30;;;;;;;16.58;74.29;102213.09;5094611;28;20056;-67
2023/08/20 06:53:46;;;;;;;3.80;1.55;;;;;;;16.44;75.08;102200.31;5095708;28;20024;-66
2023/08/20 06:56:12;;;;;;;4.05;1.75;;;;;;;15.71;75.53;102101.56;5096895;28;20039;-67
2023/08/20 06:58:40;;;;;;;6.38;1.35;;;;;;;16.35;76.51;102199.47;5096554;28;20024;-66
2023/08/20 07:01:08;;;;;;;2.75;2.22;;;;;;;16.43;76.81;102202.16;5096164;28;20120;-64
2023/08/20 07:03:34;;;;;;;;;;;;;;;16.51;77.43;102219.31;5095396;28;20036;-66
2023/08/20 07:06:00;;;;;;;3.90;2.38;;;;;;;16.42;76.93;102221.13;5095028;28;20019;-67
2023/08/20 07:08:25;;;;;;;2.20;1.38;;;;;;;16.33;77.02;102190.72;5095745;28;20134;-65
2023/08/20 07:10:51;;;;;;;2.63;1.83;;;;;;;15.95;74.97;102126.81;5094638;28;20055;-67
2023/08/20 07:13:16;;;;;;;3.17;1.88;;;;;;;16.39;75.23;102199.97;5097169;28;20046;-66
2023/08/20 07:15:42;;;;;;;4.28;1.70;;;;;;;16.36;72.88;102184.16;5094494;28;20055;-65
2023/08/20 07:18:07;;;;;;;1.85;1.65;;;;;;;16.46;74.83;102189.38;5095495;28;20093;-65
2023/08/20 07:20:33;;;;;;;2.25;1.42;;;;;;;16.64;75.71;102212.44;5095314;28;20050;-69
2023/08/20 07:22:58;;;;;;;1.77;1.58;;;;;;;16.67;74.38;102214.81;5096090;28;20103;-64
2023/08/20 07:25:24;;;;;;;4.10;2.75;;;;;;;16.43;74.71;102188.72;5096419;28;20032;-69
2023/08/20 07:27:50;;;;;;;3.15;2.13;;;;;;;16.28;74.14;102157.28;5099737;28;20382;-67
2023/08/20 07:30:16;;;;;;;4.15;2.17;;;;;;;16.38;74.97;102180.31;5094518;28;20055;-67
2023/08/20 07:32:42;;;;;;;3.20;1.60;;;;;;;16.57;75.95;102208.75;5094271;28;20056;-68
2023/08/20 07:35:08;;;;;;;3.47;1.90;;;;;;;16.63;76.78;102209.91;5095245;28;20024;-68
2023/08/20 07:37:33;;;;;;;2.20;1.73;;;;;;;16.63;76.65;102212.59;5094928;28;20123;-67
2023/08/20 07:39:59;;;;;;;5.72;1.80;;;;;;;16.54;76.16;102202.84;5094413;28;20131;-65
2023/08/20 07:42:24;;;;;;;4.50;2.00;;;;;;;16.67;77.43;102198.69;5093728;28;20036;-65
2023/08/20 07:44:50;;;;;;;3.22;1.50;;;;;;;16.82;76.08;102198.88;5095035;28;20115;-69
2023/08/20 07:47:15;;;;;;;2.78;1.98;;;;;;;16.96;75.27;102198.16;5094771;28;20066;-65
2023/08/20 07:49:40;;;;;;;4.43;1.55;;;;;;;17.04;75.34;102205.38;5094810;28;20071;-67
2023/08/20 07:52:06;;;;;;;2.88;1.95;;;;;;;17.14;74.53;102203.38;5093862;28;20044;-65
2023/08/20 07:54:31;;;;;;;5.32;2.15;;;;;;;17.23;75.35;102206.88;5096172;28;20024;-67
2023/08/20 07:56:57;;;;;;;2.97;1.52;;;;;;;17.23;71.97;102213.09;5101746;28;20020;-62
2023/08/20 07:59:22;;;;;;;2.50;1.67;;;;;;;17.21;71.99;102203.53;5105691;28;20024;-62
2023/08/20 08:01:48;;;;;;;2.53;1.48;;;;;;;17.16;71.98;102200.50;5104608;28;20036;-66
2023/08/20 08:04:14;;;;;;;2.95;1.50;;;;;;;17.17;71.74;102199.50;5104930;28;20028;-63
2023/08/20 08:06:40;;;;;;;1.95;1.48;;;;;;;17.28;71.91;102202.66;5104013;28;20035;-64
2023/08/20 08:09:35;;;;;;;2.22;1.70;;;;;;;17.32;73.44;102209.38;5105018;28;20032;-62
2023/08/20 08:12:01;;;;;;;3.67;1.67;;;;;;;17.37;72.02;102210.75;5096824;28;20078;-63
2023/08/20 08:14:27;;;;;;;2.88;1.80;;;;;;;17.01;71.51;102141.97;5103951;28;20020;-62
2023/08/20 08:16:53;;;;;;;2.63;1.75;;;;;;;17.27;71.56;102186.69;5102594;28;20020;-63
2023/08/20 08:19:19;;;;;;;1.70;1.42;;;;;;;17.30;72.12;102186.31;5101666;28;20020;-64
2023/08/20 08:21:45;;;;;;;2.53;1.67;;;;;;;17.45;73.00;102208.00;5105054;28;20036;-64
2023/08/20 08:24:11;;;;;;;4.10;2.47;;;;;;;17.42;73.60;102195.75;5104281;28;20054;-62
2023/08/20 08:26:36;;;;;;;3.20;2.65;;;;;;;17.32;73.72;102185.16;5106310;28;20024;-60
2023/08/20 08:29:05;;;;;;;2.97;1.80;;;;;;;17.39;74.08;102195.25;5101448;28;20386;-68
2023/08/20 08:31:31;;;;;;;3.17;2.65;;;;;;;17.32;72.67;102201.28;5095143;28;20139;-65
2023/08/20 08:33:57;;;;;;;1.88;1.60;;;;;;;17.22;71.85;102191.75;5097115;28;20063;-65
2023/08/20 08:36:24;;;;;;;2.30;1.30;;;;;;;17.29;70.27;102198.13;5095056;28;20084;-69
2023/08/20 08:38:53;;;;;;;3.55;1.48;;;;;;;17.39;70.71;102195.25;5097154;28;20463;-63
2023/08/20 08:41:21;;;;;;;;;;;;;;;17.39;70.54;102198.78;5099188;28;20032;-65
2023/08/20 08:43:47;;;;;;;3.72;1.48;;;;;;;17.23;70.50;102169.19;5098903;28;20003;-64
2023/08/20 08:46:14;;;;;;;2.03;1.67;;;;;;;17.36;70.65;102188.34;5098623;28;20035;-64
2023/08/20 08:48:43;;;;;;;3.28;1.40;;;;;;;17.38;72.34;102188.19;5097847;28;20032;-70
2023/08/20 08:51:09;;;;;;;1.70;1.13;;;;;;;17.42;69.97;102197.59;5100780;28;20024;-68
2023/08/20 08:53:35;;;;;;;4.70;1.65;;;;;;;17.31;69.22;102182.63;5096866;28;20490;-69
2023/08/20 08:56:02;;;;;;;3.30;1.33;;;;;;;17.34;70.41;102174.19;5096528;28;20035;-66
2023/08/20 08:58:28;;;;;;;1.58;1.10;;;;;;;17.42;68.83;102186.81;5096415;28;20115;-67
2023/08/20 09:00:53;;;;;;;2.55;1.73;;;;;;;17.41;69.53;102177.91;5096574;28;20032;-67
2023/08/20 09:03:19;;;;;;;3.35;1.50;;;;;;;17.37;68.55;102165.81;5099465;28;20486;-65
2023/08/20 09:05:49;;;;;;;2.90;2.50;;;;;;;17.49;67.17;102180.56;5099399;28;20024;-65
2023/08/20 09:08:28;;;;;;;4.00;1.45;;;;;;;17.50;64.53;102174.16;5103167;28;20471;-66
2023/08/20 09:10:56;;;;;;;2.80;1.27;;;;;;;17.26;65.42;102123.06;5105571;28;20044;-67
2023/08/20 09:13:35;;;;;;;2.55;2.08;;;;;;;17.56;67.19;102170.75;5104949;28;20088;-67
2023/08/20 09:16:04;;;;;;;5.50;1.40;;;;;;;17.63;68.40;102171.75;5101436;28;20028;-69
2023/08/20 09:18:30;;;;;;;3.25;2.08;;;;;;;16.95;68.99;102056.56;5101941;28;20028;-71
2023/08/20 09:20:57;;;;;;;1.70;1.25;;;;;;;17.64;65.64;102157.28;5095754;28;20039;-69
2023/08/20 09:23:22;;;;;;;3.30;1.60;;;;;;;17.68;66.42;102162.34;5093446;28;20463;-69
2023/08/20 09:25:48;;;;;;;2.15;1.17;;;;;;;17.51;65.27;102138.13;5092751;28;20088;-71
2023/08/20 09:28:14;;;;;;;2.85;1.30;;;;;;;17.62;66.36;102175.44;5093438;28;20411;-67
2023/08/20 09:30:41;;;;;;;1.98;1.45;;;;;;;17.68;67.58;102173.13;5092040;28;20056;-68
2023/08/20 09:33:27;;;;;;;3.23;1.67;;;;;;;17.77;67.60;102169.38;5092029;28;20115;-69
2023/08/20 09:35:56;;;;;;;1.70;1.23;;;;;;;17.76;67.64;102138.06;5093056;28;20428;-70
2023/08/20 09:38:23;;;;;;;3.35;1.40;;;;;;;17.97;67.24;102153.63;5092687;28;20348;-73
2023/08/20 09:40:55;;;;;;;2.13;1.20;;;;;;;17.92;67.06;102154.13;5093488;28;20024;-70
2023/08/20 09:43:27;;;;;;;1.63;1.20;;;;;;;17.65;67.00;102105.06;5093063;28;20356;-69
2023/08/20 09:45:56;;;;;;;2.15;1.17;;;;;;;17.94;66.03;102157.50;5092046;28;20116;-68
2023/08/20 09:48:21;;;;;;;;;;;;;;;17.96;65.90;102158.16;5075748;28;20371;-69
2023/08/20 09:50:51;;;;;;;2.70;1.40;;;;;;;17.92;64.71;102152.25;5092725;28;19908;-73
2023/08/20 09:53:26;;;;;;;1.88;1.20;;;;;;;17.86;65.94;102144.06;5092986;28;20023;-70
2023/08/20 09:55:55;;;;;;;2.85;1.63;;;;;;;17.97;63.48;102143.66;5093414;28;20126;-69
2023/08/20 09:58:25;;;;;;;2.67;1.23;;;;;;;18.02;60.70;102146.66;5091889;28;20459;-71
2023/08/20 10:00:51;;;;;;;3.78;1.42;;;;;;;17.99;60.48;102141.63;5092645;28;20474;-67
2023/08/20 10:03:18;;;;;;;2.13;1.52;;;;;;;17.75;61.17;102090.56;5092912;28;20435;-68
2023/08/20 10:05:46;;;;;;;3.55;1.45;;;;;;;18.19;60.70;102137.44;5094276;28;20024;-68
2023/08/20 10:08:13;;;;;;;2.03;1.27;;;;;;;18.23;58.31;102133.38;5091478;28;20597;-70
2023/08/20 10:10:38;;;;;;;4.13;1.60;;;;;;;18.26;57.09;102134.88;5093367;28;20040;-69
2023/08/20 10:13:04;;;;;;;2.10;1.90;;;;;;;18.29;57.91;102145.31;5087045;28;20028;-66
2023/08/20 10:15:31;;;;;;;4.18;2.22;;;;;;;18.23;59.92;102130.69;5091868;28;20436;-69
2023/08/20 10:17:57;;;;;;;4.30;3.38;;;;;;;18.31;60.83;102145.13;5093678;28;20375;-69
2023/08/20 10:20:23;;;;;;;2.28;1.30;;;;;;;18.33;61.39;102137.69;5092910;28;20348;-69
2023/08/20 10:22:51;;;;;;;3.78;1.50;;;;;;;18.30;61.39;102132.66;5093290;28;20032;-68
2023/08/20 10:25:24;;;;;;;2.08;1.63;;;;;;;18.29;58.22;102133.69;5094189;28;20032;-68
2023/08/20 10:27:50;;;;;;;2.13;1.40;;;;;;;18.08;57.74;102099.28;5077524;28;20032;-66
2023/08/20 10:30:25;;;;;;;2.03;1.20;;;;;;;18.35;57.79;102151.84;5096660;28;20036;-67
2023/08/20 10:32:52;;;;;;;0.95;0.80;;;;;;;18.36;56.96;102145.41;5096784;28;20032;-67
2023/08/20 10:35:28;;;;;;;1.50;1.30;;;;;;;18.41;56.26;102146.56;5096764;28;20028;-68
2023/08/20 10:38:09;;;;;;;2.50;1.35;;;;;;;18.42;56.24;102147.38;5095404;28;20031;-67
2023/08/20 10:40:55;;;;;;;2.38;1.10;;;;;;;18.46;56.29;102151.41;5096318;28;20375;-65
2023/08/20 10:43:26;;;;;;;1.98;1.42;;;;;;;17.56;56.62;102006.44;5096102;28;20028;-67
2023/08/20 10:46:18;;;;;;;1.98;1.27;;;;;;;18.40;58.17;102127.84;5096041;28;20512;-67
2023/08/20 10:49:04;;;;;;;1.90;1.48;;;;;;;18.50;57.76;102123.03;5095968;28;20032;-68
2023/08/20 10:51:33;;;;;;;2.33;1.60;;;;;;;18.57;58.23;102124.84;5094326;28;20038;-69
2023/08/20 10:54:01;;;;;;;2.13;0.95;;;;;;;18.63;57.98;102134.09;5096077;28;20123;-66
2023/08/20 10:56:46;;;;;;;2.35;1.40;;;;;;;18.64;58.71;102130.38;5095893;28;20036;-67
2023/08/20 10:59:16;;;;;;;1.42;1.25;;;;;;;18.68;59.16;102128.16;5095677;28;20031;-67
2023/08/20 11:01:51;;;;;;;2.20;1.70;;;;;;;18.73;59.67;102133.84;5095710;28;20193;-66
2023/08/20 11:04:19;;;;;;;1.73;1.50;;;;;;;18.72;58.56;102124.06;5095778;28;20088;-70
2023/08/20 11:06:45;;;;;;;1.65;1.50;;;;;;;18.75;58.31;102127.22;5095547;28;20024;-70
2023/08/20 11:09:11;;;;;;;2.50;1.10;;;;;;;18.82;57.34;102136.28;5095888;28;20172;-68
2023/08/20 11:11:40;;;;;;;1.50;1.30;;;;;;;18.71;57.05;102117.81;5086957;28;20383;-67
2023/08/20 11:14:13;;;;;;;2.03;1.10;;;;;;;18.81;56.57;102118.41;5075140;28;20077;-67
2023/08/20 11:16:40;;;;;;;2.13;1.48;;;;;;;18.90;56.95;102118.34;5075684;28;20032;-68
2023/08/20 11:19:08;;;;;;;2.92;1.40;;;;;;;18.89;57.68;102112.09;5075340;28;20024;-70
2023/08/20 11:21:35;;;;;;;2.55;1.75;;;;;;;19.00;57.42;102121.59;5075399;28;20443;-71
2023/08/20 11:24:04;;;;;;;3.58;1.35;;;;;;;18.90;57.67;102112.94;5075358;28;20032;-67